EBAW/ANR METAR and TAF weather

Enter ICAO airport designator
Station Type Date Time Source
EBAW METAR 2020/08/11 17:50 UTC NOAA

EBAW 111750Z 07007KT 9999 VCTS SCT070CB 31/15 Q1013 TEMPO VRB18G33KT 3000 TSRAGR


Station Type Date Time Source
EBAW Decoded METAR 2020/08/11 17:50 UTC NOAA

Antwerpen / Deurne, Belgium (EBAW) 51-12N 004-28E 14M
Aug 11, 2020 - 01:50 PM EDT / 2020.08.11 1750 UTC
Wind: from the ENE (070 degrees) at 8 MPH (7 KT):0
Visibility: greater than 7 mile(s):0
Sky conditions: partly cloudy
Weather: thunder in the vicinity; Cumulonimbus clouds observed
Temperature: 87 F (31 C)
Dew Point: 59 F (15 C)
Relative Humidity: 37%
Pressure (altimeter): 29.91 in. Hg (1013 hPa)
ob: EBAW 111750Z 07007KT 9999 VCTS SCT070CB 31/15 Q1013 TEMPO VRB18G33KT 3000 TSRAGR
cycle: 18

Station Type Date Time Source
EBAW TAF 2019/07/25 18:27 UTC NOAA

TAF TAF EBAW 251700Z 2518/2606 11007KT CAVOK PROB30
TEMPO 2518/2520 VRB15G30KT 3500 SHRA TSRA

Example: see airport list